sensor_id;sensor_type;location;lat;lon;timestamp;P1;durP1;ratioP1;P2;durP2;ratioP2
15573;SDS011;7888;46.748;8.102;2022-11-15T00:00:54;0.77;;;0.50;;
15573;SDS011;7888;46.748;8.102;2022-11-15T00:03:21;0.97;;;0.53;;
15573;SDS011;7888;46.748;8.102;2022-11-15T00:05:50;1.70;;;0.63;;
15573;SDS011;7888;46.748;8.102;2022-11-15T00:08:16;1.37;;;0.97;;
15573;SDS011;7888;46.748;8.102;2022-11-15T00:10:42;0.70;;;0.63;;
15573;SDS011;7888;46.748;8.102;2022-11-15T00:13:19;1.37;;;0.60;;
15573;SDS011;7888;46.748;8.102;2022-11-15T00:15:45;0.53;;;0.53;;
15573;SDS011;7888;46.748;8.102;2022-11-15T00:18:14;2.20;;;0.87;;
15573;SDS011;7888;46.748;8.102;2022-11-15T00:20:40;1.17;;;0.80;;
15573;SDS011;7888;46.748;8.102;2022-11-15T00:23:07;1.40;;;1.03;;
15573;SDS011;7888;46.748;8.102;2022-11-15T00:25:33;1.73;;;0.90;;
15573;SDS011;7888;46.748;8.102;2022-11-15T00:28:00;0.93;;;0.80;;
15573;SDS011;7888;46.748;8.102;2022-11-15T00:30:26;1.10;;;0.80;;
15573;SDS011;7888;46.748;8.102;2022-11-15T00:32:53;1.73;;;0.70;;
15573;SDS011;7888;46.748;8.102;2022-11-15T00:35:19;1.10;;;0.67;;
15573;SDS011;7888;46.748;8.102;2022-11-15T00:37:46;1.33;;;0.70;;
15573;SDS011;7888;46.748;8.102;2022-11-15T00:40:13;1.33;;;0.80;;
15573;SDS011;7888;46.748;8.102;2022-11-15T00:42:40;0.60;;;0.57;;
15573;SDS011;7888;46.748;8.102;2022-11-15T00:45:07;1.83;;;0.60;;
15573;SDS011;7888;46.748;8.102;2022-11-15T00:47:33;0.97;;;0.90;;
15573;SDS011;7888;46.748;8.102;2022-11-15T00:49:59;1.87;;;0.70;;
15573;SDS011;7888;46.748;8.102;2022-11-15T00:52:25;2.13;;;0.77;;
15573;SDS011;7888;46.748;8.102;2022-11-15T00:54:51;0.70;;;0.60;;
15573;SDS011;7888;46.748;8.102;2022-11-15T00:57:17;2.27;;;0.73;;
15573;SDS011;7888;46.748;8.102;2022-11-15T00:59:43;0.93;;;0.60;;
15573;SDS011;7888;46.748;8.102;2022-11-15T01:02:08;0.63;;;0.50;;
15573;SDS011;7888;46.748;8.102;2022-11-15T01:04:34;0.90;;;0.60;;
15573;SDS011;7888;46.748;8.102;2022-11-15T01:07:00;0.87;;;0.40;;
15573;SDS011;7888;46.748;8.102;2022-11-15T01:09:26;0.87;;;0.60;;
15573;SDS011;7888;46.748;8.102;2022-11-15T01:11:52;1.70;;;0.90;;
15573;SDS011;7888;46.748;8.102;2022-11-15T01:14:18;0.77;;;0.60;;
15573;SDS011;7888;46.748;8.102;2022-11-15T01:16:43;1.37;;;0.73;;
15573;SDS011;7888;46.748;8.102;2022-11-15T01:19:09;0.70;;;0.50;;
15573;SDS011;7888;46.748;8.102;2022-11-15T01:21:35;2.10;;;0.70;;
15573;SDS011;7888;46.748;8.102;2022-11-15T01:24:01;1.83;;;0.80;;
15573;SDS011;7888;46.748;8.102;2022-11-15T01:26:27;2.40;;;0.80;;
15573;SDS011;7888;46.748;8.102;2022-11-15T01:28:53;1.37;;;1.00;;
15573;SDS011;7888;46.748;8.102;2022-11-15T01:31:19;0.57;;;0.50;;
15573;SDS011;7888;46.748;8.102;2022-11-15T01:33:47;1.60;;;0.70;;
15573;SDS011;7888;46.748;8.102;2022-11-15T01:36:15;0.90;;;0.70;;
15573;SDS011;7888;46.748;8.102;2022-11-15T01:38:43;0.80;;;0.70;;
15573;SDS011;7888;46.748;8.102;2022-11-15T01:41:14;0.80;;;0.70;;
15573;SDS011;7888;46.748;8.102;2022-11-15T01:43:49;0.60;;;0.60;;
15573;SDS011;7888;46.748;8.102;2022-11-15T01:48:51;2.17;;;0.93;;
15573;SDS011;7888;46.748;8.102;2022-11-15T01:51:20;1.53;;;0.70;;
15573;SDS011;7888;46.748;8.102;2022-11-15T01:53:52;0.70;;;0.50;;
15573;SDS011;7888;46.748;8.102;2022-11-15T01:56:25;0.50;;;0.50;;
15573;SDS011;7888;46.748;8.102;2022-11-15T01:58:55;0.87;;;0.70;;
15573;SDS011;7888;46.748;8.102;2022-11-15T02:01:25;1.27;;;0.67;;
15573;SDS011;7888;46.748;8.102;2022-11-15T02:03:56;1.27;;;0.60;;
15573;SDS011;7888;46.748;8.102;2022-11-15T02:06:30;0.73;;;0.40;;
15573;SDS011;7888;46.748;8.102;2022-11-15T02:08:57;0.67;;;0.50;;
15573;SDS011;7888;46.748;8.102;2022-11-15T02:11:25;1.00;;;0.60;;
15573;SDS011;7888;46.748;8.102;2022-11-15T02:13:51;1.70;;;0.50;;
15573;SDS011;7888;46.748;8.102;2022-11-15T02:31:49;0.50;;;0.40;;
15573;SDS011;7888;46.748;8.102;2022-11-15T02:37:39;1.90;;;0.80;;
15573;SDS011;7888;46.748;8.102;2022-11-15T02:43:08;1.80;;;0.83;;
15573;SDS011;7888;46.748;8.102;2022-11-15T02:46:08;1.00;;;0.63;;
15573;SDS011;7888;46.748;8.102;2022-11-15T02:49:17;0.80;;;0.50;;
15573;SDS011;7888;46.748;8.102;2022-11-15T02:51:44;1.70;;;0.50;;
15573;SDS011;7888;46.748;8.102;2022-11-15T02:54:14;1.33;;;0.53;;
15573;SDS011;7888;46.748;8.102;2022-11-15T02:56:47;0.63;;;0.50;;
15573;SDS011;7888;46.748;8.102;2022-11-15T02:59:19;2.43;;;0.43;;
15573;SDS011;7888;46.748;8.102;2022-11-15T03:02:36;1.60;;;0.50;;
15573;SDS011;7888;46.748;8.102;2022-11-15T03:05:37;0.77;;;0.50;;
15573;SDS011;7888;46.748;8.102;2022-11-15T03:11:02;0.70;;;0.47;;
15573;SDS011;7888;46.748;8.102;2022-11-15T03:19:46;0.93;;;0.53;;
15573;SDS011;7888;46.748;8.102;2022-11-15T03:22:16;0.40;;;0.40;;
15573;SDS011;7888;46.748;8.102;2022-11-15T03:24:50;0.57;;;0.47;;
15573;SDS011;7888;46.748;8.102;2022-11-15T03:27:22;0.60;;;0.50;;
15573;SDS011;7888;46.748;8.102;2022-11-15T03:29:57;0.97;;;0.40;;
15573;SDS011;7888;46.748;8.102;2022-11-15T03:32:29;1.67;;;0.40;;
15573;SDS011;7888;46.748;8.102;2022-11-15T03:35:02;0.40;;;0.40;;
15573;SDS011;7888;46.748;8.102;2022-11-15T03:40:15;0.67;;;0.50;;
15573;SDS011;7888;46.748;8.102;2022-11-15T03:42:46;0.70;;;0.60;;
15573;SDS011;7888;46.748;8.102;2022-11-15T03:45:32;1.50;;;0.80;;
15573;SDS011;7888;46.748;8.102;2022-11-15T03:48:13;1.40;;;0.67;;
15573;SDS011;7888;46.748;8.102;2022-11-15T03:50:46;0.53;;;0.53;;
15573;SDS011;7888;46.748;8.102;2022-11-15T03:53:13;1.67;;;0.50;;
15573;SDS011;7888;46.748;8.102;2022-11-15T03:55:39;0.70;;;0.53;;
15573;SDS011;7888;46.748;8.102;2022-11-15T03:58:05;0.53;;;0.40;;
15573;SDS011;7888;46.748;8.102;2022-11-15T04:00:32;0.50;;;0.37;;
15573;SDS011;7888;46.748;8.102;2022-11-15T04:02:58;1.27;;;0.40;;
15573;SDS011;7888;46.748;8.102;2022-11-15T04:05:23;1.43;;;0.50;;
15573;SDS011;7888;46.748;8.102;2022-11-15T04:07:49;0.80;;;0.77;;
15573;SDS011;7888;46.748;8.102;2022-11-15T04:10:15;1.03;;;0.50;;
15573;SDS011;7888;46.748;8.102;2022-11-15T04:12:43;0.90;;;0.80;;
15573;SDS011;7888;46.748;8.102;2022-11-15T04:15:15;1.17;;;0.63;;
15573;SDS011;7888;46.748;8.102;2022-11-15T04:17:48;1.40;;;0.50;;
15573;SDS011;7888;46.748;8.102;2022-11-15T04:20:18;1.03;;;0.50;;
15573;SDS011;7888;46.748;8.102;2022-11-15T04:23:30;0.60;;;0.60;;
15573;SDS011;7888;46.748;8.102;2022-11-15T04:26:32;1.77;;;1.23;;
15573;SDS011;7888;46.748;8.102;2022-11-15T04:28:58;1.53;;;0.57;;
15573;SDS011;7888;46.748;8.102;2022-11-15T04:32:03;0.50;;;0.50;;
15573;SDS011;7888;46.748;8.102;2022-11-15T04:34:31;1.37;;;0.67;;
15573;SDS011;7888;46.748;8.102;2022-11-15T04:36:57;1.70;;;0.60;;
15573;SDS011;7888;46.748;8.102;2022-11-15T04:39:40;1.17;;;0.93;;
15573;SDS011;7888;46.748;8.102;2022-11-15T04:42:06;1.07;;;0.60;;
15573;SDS011;7888;46.748;8.102;2022-11-15T04:44:33;2.17;;;0.70;;
15573;SDS011;7888;46.748;8.102;2022-11-15T04:47:00;2.47;;;0.43;;
15573;SDS011;7888;46.748;8.102;2022-11-15T04:49:26;0.47;;;0.30;;
15573;SDS011;7888;46.748;8.102;2022-11-15T04:51:52;0.60;;;0.40;;
15573;SDS011;7888;46.748;8.102;2022-11-15T04:54:18;1.90;;;0.50;;
15573;SDS011;7888;46.748;8.102;2022-11-15T04:56:44;1.17;;;0.70;;
15573;SDS011;7888;46.748;8.102;2022-11-15T04:59:10;0.70;;;0.50;;
15573;SDS011;7888;46.748;8.102;2022-11-15T05:01:36;1.20;;;0.60;;
15573;SDS011;7888;46.748;8.102;2022-11-15T05:04:02;1.80;;;0.50;;
15573;SDS011;7888;46.748;8.102;2022-11-15T05:06:49;1.57;;;0.57;;
15573;SDS011;7888;46.748;8.102;2022-11-15T05:09:17;0.87;;;0.60;;
15573;SDS011;7888;46.748;8.102;2022-11-15T05:11:44;0.50;;;0.50;;
15573;SDS011;7888;46.748;8.102;2022-11-15T05:14:11;0.80;;;0.60;;
15573;SDS011;7888;46.748;8.102;2022-11-15T05:16:38;1.93;;;0.50;;
15573;SDS011;7888;46.748;8.102;2022-11-15T05:19:04;1.00;;;0.67;;
15573;SDS011;7888;46.748;8.102;2022-11-15T05:21:31;2.17;;;0.60;;
15573;SDS011;7888;46.748;8.102;2022-11-15T05:23:58;0.80;;;0.50;;
15573;SDS011;7888;46.748;8.102;2022-11-15T05:26:24;1.30;;;0.60;;
15573;SDS011;7888;46.748;8.102;2022-11-15T05:28:54;1.07;;;0.50;;
15573;SDS011;7888;46.748;8.102;2022-11-15T05:31:23;0.73;;;0.47;;
15573;SDS011;7888;46.748;8.102;2022-11-15T05:33:50;1.33;;;0.50;;
15573;SDS011;7888;46.748;8.102;2022-11-15T05:39:04;0.70;;;0.50;;
15573;SDS011;7888;46.748;8.102;2022-11-15T05:41:53;1.23;;;0.60;;
15573;SDS011;7888;46.748;8.102;2022-11-15T05:44:35;1.23;;;0.57;;
15573;SDS011;7888;46.748;8.102;2022-11-15T05:47:05;1.97;;;0.50;;
15573;SDS011;7888;46.748;8.102;2022-11-15T05:49:36;2.13;;;0.70;;
15573;SDS011;7888;46.748;8.102;2022-11-15T05:52:06;1.73;;;0.57;;
15573;SDS011;7888;46.748;8.102;2022-11-15T05:54:36;0.97;;;0.53;;
15573;SDS011;7888;46.748;8.102;2022-11-15T05:57:03;1.10;;;0.70;;
15573;SDS011;7888;46.748;8.102;2022-11-15T05:59:30;0.80;;;0.40;;
15573;SDS011;7888;46.748;8.102;2022-11-15T06:01:58;1.43;;;0.60;;
15573;SDS011;7888;46.748;8.102;2022-11-15T06:04:24;2.23;;;0.83;;
15573;SDS011;7888;46.748;8.102;2022-11-15T06:06:50;7.07;;;4.10;;
15573;SDS011;7888;46.748;8.102;2022-11-15T06:09:16;4.60;;;3.47;;
15573;SDS011;7888;46.748;8.102;2022-11-15T06:11:41;4.87;;;2.10;;
15573;SDS011;7888;46.748;8.102;2022-11-15T06:14:07;1.50;;;1.40;;
15573;SDS011;7888;46.748;8.102;2022-11-15T06:16:33;1.73;;;1.23;;
15573;SDS011;7888;46.748;8.102;2022-11-15T06:18:59;1.60;;;1.07;;
15573;SDS011;7888;46.748;8.102;2022-11-15T06:21:25;2.63;;;0.70;;
15573;SDS011;7888;46.748;8.102;2022-11-15T06:23:52;0.63;;;0.60;;
15573;SDS011;7888;46.748;8.102;2022-11-15T06:26:19;0.97;;;0.60;;
15573;SDS011;7888;46.748;8.102;2022-11-15T06:28:45;0.80;;;0.70;;
15573;SDS011;7888;46.748;8.102;2022-11-15T06:31:11;1.87;;;1.20;;
15573;SDS011;7888;46.748;8.102;2022-11-15T06:33:37;2.37;;;1.53;;
15573;SDS011;7888;46.748;8.102;2022-11-15T06:36:05;2.73;;;1.63;;
15573;SDS011;7888;46.748;8.102;2022-11-15T06:38:34;3.07;;;2.50;;
15573;SDS011;7888;46.748;8.102;2022-11-15T06:41:08;3.33;;;2.67;;
15573;SDS011;7888;46.748;8.102;2022-11-15T06:43:35;5.70;;;3.67;;
15573;SDS011;7888;46.748;8.102;2022-11-15T06:46:02;4.00;;;2.50;;
15573;SDS011;7888;46.748;8.102;2022-11-15T06:48:30;2.50;;;1.90;;
15573;SDS011;7888;46.748;8.102;2022-11-15T06:50:58;2.90;;;2.13;;
15573;SDS011;7888;46.748;8.102;2022-11-15T06:53:27;4.40;;;3.00;;
15573;SDS011;7888;46.748;8.102;2022-11-15T06:55:57;3.70;;;2.83;;
15573;SDS011;7888;46.748;8.102;2022-11-15T06:58:25;2.53;;;2.17;;
15573;SDS011;7888;46.748;8.102;2022-11-15T07:00:51;4.23;;;1.57;;
15573;SDS011;7888;46.748;8.102;2022-11-15T07:03:17;1.43;;;1.10;;
15573;SDS011;7888;46.748;8.102;2022-11-15T07:05:50;2.00;;;1.80;;
15573;SDS011;7888;46.748;8.102;2022-11-15T07:08:21;2.80;;;1.27;;
15573;SDS011;7888;46.748;8.102;2022-11-15T07:10:49;1.83;;;1.70;;
15573;SDS011;7888;46.748;8.102;2022-11-15T07:13:15;4.03;;;1.70;;
15573;SDS011;7888;46.748;8.102;2022-11-15T07:15:41;4.43;;;2.13;;
15573;SDS011;7888;46.748;8.102;2022-11-15T07:18:06;3.13;;;1.97;;
15573;SDS011;7888;46.748;8.102;2022-11-15T07:20:32;3.70;;;2.10;;
15573;SDS011;7888;46.748;8.102;2022-11-15T07:23:01;2.83;;;2.30;;
15573;SDS011;7888;46.748;8.102;2022-11-15T07:25:30;1.83;;;1.67;;
15573;SDS011;7888;46.748;8.102;2022-11-15T07:27:56;1.83;;;1.57;;
15573;SDS011;7888;46.748;8.102;2022-11-15T07:30:24;2.43;;;1.87;;
15573;SDS011;7888;46.748;8.102;2022-11-15T07:32:55;3.43;;;1.80;;
15573;SDS011;7888;46.748;8.102;2022-11-15T07:35:23;2.63;;;1.57;;
15573;SDS011;7888;46.748;8.102;2022-11-15T07:37:57;4.13;;;1.57;;
15573;SDS011;7888;46.748;8.102;2022-11-15T07:40:26;1.77;;;1.37;;
15573;SDS011;7888;46.748;8.102;2022-11-15T07:43:01;1.50;;;1.20;;
15573;SDS011;7888;46.748;8.102;2022-11-15T07:45:30;1.60;;;1.13;;
15573;SDS011;7888;46.748;8.102;2022-11-15T07:47:58;1.80;;;1.33;;
15573;SDS011;7888;46.748;8.102;2022-11-15T07:50:25;1.00;;;0.90;;
15573;SDS011;7888;46.748;8.102;2022-11-15T07:52:54;1.23;;;0.90;;
15573;SDS011;7888;46.748;8.102;2022-11-15T07:55:22;1.50;;;1.13;;
15573;SDS011;7888;46.748;8.102;2022-11-15T07:57:49;1.30;;;0.77;;
15573;SDS011;7888;46.748;8.102;2022-11-15T08:00:16;2.87;;;0.80;;
15573;SDS011;7888;46.748;8.102;2022-11-15T08:02:42;1.87;;;0.83;;
15573;SDS011;7888;46.748;8.102;2022-11-15T08:05:08;2.93;;;1.10;;
15573;SDS011;7888;46.748;8.102;2022-11-15T08:07:34;2.57;;;1.10;;
15573;SDS011;7888;46.748;8.102;2022-11-15T08:10:00;3.17;;;1.70;;
15573;SDS011;7888;46.748;8.102;2022-11-15T08:12:27;3.57;;;1.67;;
15573;SDS011;7888;46.748;8.102;2022-11-15T08:14:56;2.40;;;1.40;;
15573;SDS011;7888;46.748;8.102;2022-11-15T08:17:22;2.03;;;1.20;;
15573;SDS011;7888;46.748;8.102;2022-11-15T08:19:49;2.23;;;1.53;;
15573;SDS011;7888;46.748;8.102;2022-11-15T08:22:15;2.53;;;2.23;;
15573;SDS011;7888;46.748;8.102;2022-11-15T08:24:42;4.13;;;2.60;;
15573;SDS011;7888;46.748;8.102;2022-11-15T08:27:08;1.83;;;1.30;;
15573;SDS011;7888;46.748;8.102;2022-11-15T08:29:40;1.90;;;1.10;;
15573;SDS011;7888;46.748;8.102;2022-11-15T08:32:10;1.43;;;0.97;;
15573;SDS011;7888;46.748;8.102;2022-11-15T08:34:37;3.40;;;1.00;;
15573;SDS011;7888;46.748;8.102;2022-11-15T08:37:03;1.30;;;1.00;;
15573;SDS011;7888;46.748;8.102;2022-11-15T08:39:30;1.93;;;0.93;;
15573;SDS011;7888;46.748;8.102;2022-11-15T08:41:57;4.07;;;1.03;;
15573;SDS011;7888;46.748;8.102;2022-11-15T08:44:23;1.70;;;1.20;;
15573;SDS011;7888;46.748;8.102;2022-11-15T08:46:49;3.33;;;1.10;;
15573;SDS011;7888;46.748;8.102;2022-11-15T08:49:16;2.00;;;1.47;;
15573;SDS011;7888;46.748;8.102;2022-11-15T08:51:45;3.93;;;1.20;;
15573;SDS011;7888;46.748;8.102;2022-11-15T08:54:11;2.07;;;1.00;;
15573;SDS011;7888;46.748;8.102;2022-11-15T08:56:37;2.07;;;0.93;;
15573;SDS011;7888;46.748;8.102;2022-11-15T08:59:02;2.40;;;1.00;;
15573;SDS011;7888;46.748;8.102;2022-11-15T09:01:28;3.00;;;1.23;;
15573;SDS011;7888;46.748;8.102;2022-11-15T09:03:54;2.70;;;0.87;;
15573;SDS011;7888;46.748;8.102;2022-11-15T09:06:20;2.17;;;1.23;;
15573;SDS011;7888;46.748;8.102;2022-11-15T09:08:46;2.40;;;1.20;;
15573;SDS011;7888;46.748;8.102;2022-11-15T09:11:11;1.87;;;1.20;;
15573;SDS011;7888;46.748;8.102;2022-11-15T09:13:37;2.20;;;0.90;;
15573;SDS011;7888;46.748;8.102;2022-11-15T09:16:03;2.90;;;1.33;;
15573;SDS011;7888;46.748;8.102;2022-11-15T09:18:30;1.33;;;0.90;;
15573;SDS011;7888;46.748;8.102;2022-11-15T09:20:57;1.27;;;1.17;;
15573;SDS011;7888;46.748;8.102;2022-11-15T09:23:25;2.93;;;1.03;;
15573;SDS011;7888;46.748;8.102;2022-11-15T09:25:52;3.17;;;1.30;;
15573;SDS011;7888;46.748;8.102;2022-11-15T09:28:25;1.27;;;1.13;;
15573;SDS011;7888;46.748;8.102;2022-11-15T09:30:50;1.60;;;1.13;;
15573;SDS011;7888;46.748;8.102;2022-11-15T09:33:16;4.83;;;1.30;;
15573;SDS011;7888;46.748;8.102;2022-11-15T09:35:42;3.67;;;1.20;;
15573;SDS011;7888;46.748;8.102;2022-11-15T09:38:08;2.70;;;1.20;;
15573;SDS011;7888;46.748;8.102;2022-11-15T09:40:35;2.00;;;1.10;;
15573;SDS011;7888;46.748;8.102;2022-11-15T09:43:20;4.17;;;1.30;;
15573;SDS011;7888;46.748;8.102;2022-11-15T09:51:26;4.73;;;1.87;;
15573;SDS011;7888;46.748;8.102;2022-11-15T09:54:03;2.83;;;1.20;;
15573;SDS011;7888;46.748;8.102;2022-11-15T09:56:50;3.80;;;1.00;;
15573;SDS011;7888;46.748;8.102;2022-11-15T09:59:29;2.57;;;1.17;;
15573;SDS011;7888;46.748;8.102;2022-11-15T10:04:32;3.17;;;1.00;;
15573;SDS011;7888;46.748;8.102;2022-11-15T10:12:17;1.37;;;1.10;;
15573;SDS011;7888;46.748;8.102;2022-11-15T10:14:44;3.80;;;1.90;;
15573;SDS011;7888;46.748;8.102;2022-11-15T10:17:22;2.23;;;1.20;;
15573;SDS011;7888;46.748;8.102;2022-11-15T10:20:26;2.17;;;0.90;;
15573;SDS011;7888;46.748;8.102;2022-11-15T10:27:57;2.63;;;1.20;;
15573;SDS011;7888;46.748;8.102;2022-11-15T10:30:38;2.67;;;1.10;;
15573;SDS011;7888;46.748;8.102;2022-11-15T10:33:27;3.90;;;1.20;;
15573;SDS011;7888;46.748;8.102;2022-11-15T10:39:10;2.67;;;0.93;;
15573;SDS011;7888;46.748;8.102;2022-11-15T10:46:33;2.03;;;1.03;;
15573;SDS011;7888;46.748;8.102;2022-11-15T10:49:52;1.57;;;1.10;;
15573;SDS011;7888;46.748;8.102;2022-11-15T10:51:56;3.37;;;1.10;;
15573;SDS011;7888;46.748;8.102;2022-11-15T10:54:56;1.93;;;0.93;;
15573;SDS011;7888;46.748;8.102;2022-11-15T10:57:32;2.07;;;1.23;;
15573;SDS011;7888;46.748;8.102;2022-11-15T11:00:07;2.20;;;1.00;;
15573;SDS011;7888;46.748;8.102;2022-11-15T11:02:59;1.90;;;1.03;;
15573;SDS011;7888;46.748;8.102;2022-11-15T11:08:04;2.10;;;0.90;;
15573;SDS011;7888;46.748;8.102;2022-11-15T11:10:57;2.90;;;1.10;;
15573;SDS011;7888;46.748;8.102;2022-11-15T11:13:26;3.40;;;1.40;;
15573;SDS011;7888;46.748;8.102;2022-11-15T11:18:56;2.87;;;1.13;;
15573;SDS011;7888;46.748;8.102;2022-11-15T11:24:34;2.73;;;1.00;;
15573;SDS011;7888;46.748;8.102;2022-11-15T11:27:35;3.97;;;1.20;;
15573;SDS011;7888;46.748;8.102;2022-11-15T11:30:17;4.30;;;1.20;;
15573;SDS011;7888;46.748;8.102;2022-11-15T11:33:14;1.53;;;1.10;;
15573;SDS011;7888;46.748;8.102;2022-11-15T11:39:05;1.80;;;1.00;;
15573;SDS011;7888;46.748;8.102;2022-11-15T11:44:51;2.40;;;1.00;;
15573;SDS011;7888;46.748;8.102;2022-11-15T11:47:24;2.77;;;1.27;;
15573;SDS011;7888;46.748;8.102;2022-11-15T11:50:05;2.00;;;1.00;;
15573;SDS011;7888;46.748;8.102;2022-11-15T11:55:56;1.43;;;1.00;;
15573;SDS011;7888;46.748;8.102;2022-11-15T11:58:36;1.20;;;1.07;;
15573;SDS011;7888;46.748;8.102;2022-11-15T12:09:30;1.40;;;0.90;;
15573;SDS011;7888;46.748;8.102;2022-11-15T12:15:15;4.27;;;1.10;;
15573;SDS011;7888;46.748;8.102;2022-11-15T12:17:48;2.40;;;1.30;;
15573;SDS011;7888;46.748;8.102;2022-11-15T12:20:25;3.60;;;1.10;;
15573;SDS011;7888;46.748;8.102;2022-11-15T12:22:59;2.37;;;1.00;;
15573;SDS011;7888;46.748;8.102;2022-11-15T12:25:35;2.20;;;1.13;;
15573;SDS011;7888;46.748;8.102;2022-11-15T12:34:00;2.47;;;1.07;;
15573;SDS011;7888;46.748;8.102;2022-11-15T12:36:38;2.60;;;1.13;;
15573;SDS011;7888;46.748;8.102;2022-11-15T12:39:10;1.60;;;1.00;;
15573;SDS011;7888;46.748;8.102;2022-11-15T12:41:44;2.87;;;0.90;;
15573;SDS011;7888;46.748;8.102;2022-11-15T12:46:59;2.17;;;1.03;;
15573;SDS011;7888;46.748;8.102;2022-11-15T13:02:24;4.30;;;1.90;;
15573;SDS011;7888;46.748;8.102;2022-11-15T13:17:47;2.57;;;1.33;;
15573;SDS011;7888;46.748;8.102;2022-11-15T13:22:47;3.03;;;1.60;;
15573;SDS011;7888;46.748;8.102;2022-11-15T13:27:44;4.23;;;1.93;;
15573;SDS011;7888;46.748;8.102;2022-11-15T13:30:27;4.03;;;1.87;;
15573;SDS011;7888;46.748;8.102;2022-11-15T13:32:56;10.17;;;4.23;;
15573;SDS011;7888;46.748;8.102;2022-11-15T13:35:33;11.33;;;6.93;;
15573;SDS011;7888;46.748;8.102;2022-11-15T13:38:06;14.93;;;7.20;;
15573;SDS011;7888;46.748;8.102;2022-11-15T13:40:53;8.63;;;3.30;;
15573;SDS011;7888;46.748;8.102;2022-11-15T13:48:39;2.80;;;1.50;;
15573;SDS011;7888;46.748;8.102;2022-11-15T13:51:10;2.13;;;1.20;;
15573;SDS011;7888;46.748;8.102;2022-11-15T13:53:40;3.77;;;1.40;;
15573;SDS011;7888;46.748;8.102;2022-11-15T13:56:16;4.37;;;1.30;;
15573;SDS011;7888;46.748;8.102;2022-11-15T13:58:45;4.20;;;1.20;;
15573;SDS011;7888;46.748;8.102;2022-11-15T14:01:16;5.13;;;1.63;;
15573;SDS011;7888;46.748;8.102;2022-11-15T14:03:56;4.50;;;1.20;;
15573;SDS011;7888;46.748;8.102;2022-11-15T14:06:25;5.00;;;1.60;;
15573;SDS011;7888;46.748;8.102;2022-11-15T14:11:37;3.73;;;2.00;;
15573;SDS011;7888;46.748;8.102;2022-11-15T14:14:24;4.67;;;1.80;;
15573;SDS011;7888;46.748;8.102;2022-11-15T14:16:55;4.83;;;1.70;;
15573;SDS011;7888;46.748;8.102;2022-11-15T14:27:44;4.83;;;1.30;;
15573;SDS011;7888;46.748;8.102;2022-11-15T14:30:35;3.43;;;1.37;;
15573;SDS011;7888;46.748;8.102;2022-11-15T14:33:11;2.63;;;1.50;;
15573;SDS011;7888;46.748;8.102;2022-11-15T14:35:56;3.53;;;1.73;;
15573;SDS011;7888;46.748;8.102;2022-11-15T14:38:28;9.80;;;1.63;;
15573;SDS011;7888;46.748;8.102;2022-11-15T14:40:54;5.23;;;2.47;;
15573;SDS011;7888;46.748;8.102;2022-11-15T14:43:21;4.23;;;1.90;;
15573;SDS011;7888;46.748;8.102;2022-11-15T14:45:48;3.27;;;1.40;;
15573;SDS011;7888;46.748;8.102;2022-11-15T14:48:14;2.57;;;1.80;;
15573;SDS011;7888;46.748;8.102;2022-11-15T14:50:40;3.40;;;1.63;;
15573;SDS011;7888;46.748;8.102;2022-11-15T14:53:06;2.33;;;1.30;;
15573;SDS011;7888;46.748;8.102;2022-11-15T14:55:36;2.10;;;1.27;;
15573;SDS011;7888;46.748;8.102;2022-11-15T14:58:02;2.20;;;1.13;;
15573;SDS011;7888;46.748;8.102;2022-11-15T15:00:30;2.50;;;1.37;;
15573;SDS011;7888;46.748;8.102;2022-11-15T15:02:57;3.27;;;1.47;;
15573;SDS011;7888;46.748;8.102;2022-11-15T15:05:34;12.17;;;2.07;;
15573;SDS011;7888;46.748;8.102;2022-11-15T15:08:07;7.87;;;2.03;;
15573;SDS011;7888;46.748;8.102;2022-11-15T15:10:35;7.87;;;1.80;;
15573;SDS011;7888;46.748;8.102;2022-11-15T15:13:04;3.57;;;1.67;;
15573;SDS011;7888;46.748;8.102;2022-11-15T15:15:36;2.30;;;1.73;;
15573;SDS011;7888;46.748;8.102;2022-11-15T15:18:03;5.20;;;1.90;;
15573;SDS011;7888;46.748;8.102;2022-11-15T15:20:33;2.80;;;1.63;;
15573;SDS011;7888;46.748;8.102;2022-11-15T15:22:59;2.40;;;1.67;;
15573;SDS011;7888;46.748;8.102;2022-11-15T15:25:27;5.97;;;2.13;;
15573;SDS011;7888;46.748;8.102;2022-11-15T15:27:59;2.63;;;1.50;;
15573;SDS011;7888;46.748;8.102;2022-11-15T15:30:28;3.07;;;2.00;;
15573;SDS011;7888;46.748;8.102;2022-11-15T15:32:55;3.40;;;1.40;;
15573;SDS011;7888;46.748;8.102;2022-11-15T15:35:21;3.03;;;1.70;;
15573;SDS011;7888;46.748;8.102;2022-11-15T15:37:47;3.10;;;1.70;;
15573;SDS011;7888;46.748;8.102;2022-11-15T15:42:46;3.20;;;1.67;;
15573;SDS011;7888;46.748;8.102;2022-11-15T15:45:14;2.73;;;2.30;;
15573;SDS011;7888;46.748;8.102;2022-11-15T15:47:42;4.07;;;2.17;;
15573;SDS011;7888;46.748;8.102;2022-11-15T15:50:31;3.57;;;2.20;;
15573;SDS011;7888;46.748;8.102;2022-11-15T15:52:58;4.57;;;2.17;;
15573;SDS011;7888;46.748;8.102;2022-11-15T15:55:27;8.60;;;6.47;;
15573;SDS011;7888;46.748;8.102;2022-11-15T15:57:54;8.03;;;5.30;;
15573;SDS011;7888;46.748;8.102;2022-11-15T16:00:21;4.73;;;3.17;;
15573;SDS011;7888;46.748;8.102;2022-11-15T16:02:49;5.57;;;3.73;;
15573;SDS011;7888;46.748;8.102;2022-11-15T16:05:16;6.70;;;5.13;;
15573;SDS011;7888;46.748;8.102;2022-11-15T16:07:43;7.83;;;6.40;;
15573;SDS011;7888;46.748;8.102;2022-11-15T16:10:15;9.17;;;5.10;;
15573;SDS011;7888;46.748;8.102;2022-11-15T16:12:45;9.83;;;6.20;;
15573;SDS011;7888;46.748;8.102;2022-11-15T16:15:12;5.13;;;3.40;;
15573;SDS011;7888;46.748;8.102;2022-11-15T16:17:39;6.83;;;2.90;;
15573;SDS011;7888;46.748;8.102;2022-11-15T16:20:36;7.13;;;4.00;;
15573;SDS011;7888;46.748;8.102;2022-11-15T16:23:03;6.40;;;3.70;;
15573;SDS011;7888;46.748;8.102;2022-11-15T16:25:37;7.53;;;3.67;;
15573;SDS011;7888;46.748;8.102;2022-11-15T16:28:19;10.10;;;5.50;;
15573;SDS011;7888;46.748;8.102;2022-11-15T16:30:47;11.23;;;6.80;;
15573;SDS011;7888;46.748;8.102;2022-11-15T16:33:14;16.03;;;12.60;;
15573;SDS011;7888;46.748;8.102;2022-11-15T16:35:42;18.70;;;14.87;;
15573;SDS011;7888;46.748;8.102;2022-11-15T16:38:12;17.17;;;13.57;;
15573;SDS011;7888;46.748;8.102;2022-11-15T16:40:41;11.20;;;9.97;;
15573;SDS011;7888;46.748;8.102;2022-11-15T16:43:07;13.27;;;9.03;;
15573;SDS011;7888;46.748;8.102;2022-11-15T16:45:33;9.73;;;7.10;;
15573;SDS011;7888;46.748;8.102;2022-11-15T16:48:00;6.13;;;5.50;;
15573;SDS011;7888;46.748;8.102;2022-11-15T16:50:27;7.60;;;4.57;;
15573;SDS011;7888;46.748;8.102;2022-11-15T16:53:07;5.23;;;4.00;;
15573;SDS011;7888;46.748;8.102;2022-11-15T16:55:33;5.77;;;3.47;;
15573;SDS011;7888;46.748;8.102;2022-11-15T16:57:59;4.23;;;3.23;;
15573;SDS011;7888;46.748;8.102;2022-11-15T17:00:26;3.93;;;3.20;;
15573;SDS011;7888;46.748;8.102;2022-11-15T17:02:52;3.00;;;2.67;;
15573;SDS011;7888;46.748;8.102;2022-11-15T17:05:20;4.70;;;3.07;;
15573;SDS011;7888;46.748;8.102;2022-11-15T17:07:50;4.37;;;3.47;;
15573;SDS011;7888;46.748;8.102;2022-11-15T17:10:18;6.90;;;5.50;;
15573;SDS011;7888;46.748;8.102;2022-11-15T17:12:46;6.50;;;5.80;;
15573;SDS011;7888;46.748;8.102;2022-11-15T17:15:14;4.70;;;3.60;;
15573;SDS011;7888;46.748;8.102;2022-11-15T17:17:40;3.63;;;2.90;;
15573;SDS011;7888;46.748;8.102;2022-11-15T17:20:10;3.47;;;2.47;;
15573;SDS011;7888;46.748;8.102;2022-11-15T17:22:41;2.80;;;2.60;;
15573;SDS011;7888;46.748;8.102;2022-11-15T17:25:07;4.90;;;2.30;;
15573;SDS011;7888;46.748;8.102;2022-11-15T17:27:34;5.80;;;1.93;;
15573;SDS011;7888;46.748;8.102;2022-11-15T17:30:00;3.30;;;2.10;;
15573;SDS011;7888;46.748;8.102;2022-11-15T17:32:26;2.67;;;1.60;;
15573;SDS011;7888;46.748;8.102;2022-11-15T17:34:52;5.10;;;1.60;;
15573;SDS011;7888;46.748;8.102;2022-11-15T17:37:17;3.07;;;1.60;;
15573;SDS011;7888;46.748;8.102;2022-11-15T17:39:43;4.60;;;1.60;;
15573;SDS011;7888;46.748;8.102;2022-11-15T17:42:09;6.20;;;3.77;;
15573;SDS011;7888;46.748;8.102;2022-11-15T22:16:59;3.30;;;3.00;;
15573;SDS011;7888;46.748;8.102;2022-11-15T22:19:25;4.00;;;3.03;;
15573;SDS011;7888;46.748;8.102;2022-11-15T22:21:51;4.40;;;3.13;;
15573;SDS011;7888;46.748;8.102;2022-11-15T22:24:17;3.80;;;3.27;;
15573;SDS011;7888;46.748;8.102;2022-11-15T22:26:42;3.60;;;2.93;;